»·PEaware :: AAL211 KPSP-KLAS

AAL211 :: KPSP-KLAS

FLIGHT INFORMATION

Flight Status: Arrived
Operator:
American Airlines
More flights by this operator :: More flights under this callsign
Pilot: Robert McDonald (1649)
Aircraft: BOEING 737-800
(B738)
More flights by this aircraft type
Origin: KPSP Palm Springs Intl
United States
Destination: KLAS McCarran Intl
United States
More flights between these airports :: More routes between these airports
Route: +KPSP 31L CATH1 PSP V370 TNP KEPEC4
File this flight plan on PilotEdge
Remarks:
Altitude:
(Current/Filed)
25,000ft
Speed:
(Current/Filed)
450kts
Departed: 12-Jun-17 11:41 AM
Arrived: 12-Jun-17 12:20 PM
Distance/Time
Traveled:
151nm/0:39
Distance/Time
To Go:
Arrived

Flight Plot

Page will automatically refresh every two minutes.

Flight plan parsing failed; only flown route is shown


Map Options




Map Legend


Flown Route
Filed Route
Departure Airport
Arrival Airport
Navaid (VOR, NDB)
Fix

Horizontal Profiles

Position Reports

Time Latitude Longitude Heading Altitude Ground
Speed
12-Jun-17 11:28 33.823828 -116.506542 205 486ft 0kts
12-Jun-17 11:29 33.823828 -116.506542 205 486ft 0kts
12-Jun-17 11:30 33.823828 -116.506542 205 486ft 0kts
12-Jun-17 11:31 33.823828 -116.506542 205 486ft 0kts
12-Jun-17 11:32 33.823828 -116.506542 205 486ft 0kts
12-Jun-17 11:33 33.823828 -116.506542 205 486ft 0kts
12-Jun-17 11:34 33.823828 -116.506542 205 486ft 0kts
12-Jun-17 11:35 33.823828 -116.506542 205 486ft 0kts
12-Jun-17 11:36 33.823828 -116.506542 205 486ft 0kts
12-Jun-17 11:37 33.824366 -116.506401 148 486ft 0kts
12-Jun-17 11:38 33.824191 -116.506244 142 486ft 0kts
12-Jun-17 11:39 33.824190 -116.506243 142 486ft 0kts
12-Jun-17 11:40 33.823535 -116.505524 123 486ft 19kts
12-Jun-17 11:41 33.820914 -116.501777 143 486ft 20kts
12-Jun-17 11:42 33.818438 -116.498835 76 486ft 0kts
12-Jun-17 11:43 33.823096 -116.501874 323 486ft 112kts
12-Jun-17 11:44 33.868579 -116.542277 324 3549ft 241kts
12-Jun-17 11:45 33.914804 -116.514050 96 6796ft 231kts
12-Jun-17 11:46 33.881473 -116.448230 126 10256ft 246kts
12-Jun-17 11:47 33.845487 -116.371257 117 12771ft 276kts
12-Jun-17 11:48 33.814804 -116.288770 117 13009ft 269kts
12-Jun-17 11:49 33.833471 -116.207420 45 13532ft 278kts
12-Jun-17 11:50 33.882673 -116.131718 46 16338ft 298kts
12-Jun-17 11:51 33.935203 -116.049443 47 18882ft 318kts
12-Jun-17 11:52 33.990117 -115.962784 47 21264ft 332kts
12-Jun-17 11:53 34.047279 -115.872600 48 23359ft 345kts
12-Jun-17 11:54 34.106827 -115.778915 45 25025ft 365kts
12-Jun-17 11:55 34.185973 -115.686646 36 25092ft 432kts
12-Jun-17 11:56 34.281054 -115.580231 38 25080ft 497kts
12-Jun-17 11:57 34.398115 -115.496318 10 25087ft 489kts
12-Jun-17 11:58 34.527844 -115.441227 11 25078ft 494kts
12-Jun-17 11:59 34.657280 -115.384814 11 25066ft 495kts
12-Jun-17 12:00 34.788057 -115.342212 349 25058ft 470kts
12-Jun-17 12:01 34.907019 -115.377952 331 24076ft 436kts
12-Jun-17 12:02 35.023630 -115.424272 331 24052ft 443kts
12-Jun-17 12:03 35.137416 -115.468329 330 23060ft 402kts
12-Jun-17 12:04 35.239323 -115.508772 332 20239ft 379kts
12-Jun-17 12:05 35.337822 -115.547236 333 18294ft 363kts
12-Jun-17 12:06 35.432097 -115.584295 334 16477ft 350kts
12-Jun-17 12:07 35.523646 -115.620222 336 14720ft 341kts
12-Jun-17 12:08 35.612021 -115.654861 337 13220ft 326kts
12-Jun-17 12:09 35.698347 -115.650925 36 13036ft 349kts
12-Jun-17 12:10 35.772544 -115.577193 8 13038ft 339kts
12-Jun-17 12:11 35.865080 -115.569316 356 13039ft 331kts
12-Jun-17 12:12 35.956529 -115.559541 21 13021ft 338kts
12-Jun-17 12:13 36.004155 -115.461973 65 11830ft 331kts
12-Jun-17 12:14 36.030966 -115.360404 91 10872ft 291kts
12-Jun-17 12:15 36.023078 -115.261302 95 9704ft 284kts
12-Jun-17 12:16 36.016398 -115.171666 95 8286ft 242kts
12-Jun-17 12:17 36.010931 -115.090244 95 5912ft 233kts
12-Jun-17 12:18 36.019505 -115.021375 23 4425ft 196kts
12-Jun-17 12:19 36.067545 -115.031742 290 3122ft 172kts
12-Jun-17 12:20 36.073593 -115.086762 268 2473ft 146kts
12-Jun-17 12:21 36.073654 -115.136109 268 2125ft 125kts
12-Jun-17 12:22 36.076753 -115.146495 356 2124ft 18kts
12-Jun-17 12:23 36.077969 -115.141603 7 2124ft 15kts
12-Jun-17 12:24 36.079931 -115.140432 69 2124ft 0kts

Navigation Log

Ident Type
Flight plan parsing failed, navigation log unavailable